sensor_id;sensor_type;location;lat;lon;timestamp;P1;durP1;ratioP1;P2;durP2;ratioP2
483;SDS011;228;48.922;12.198;2022-10-31T00:01:20;5.43;;;4.30;;
483;SDS011;228;48.922;12.198;2022-10-31T00:03:59;6.87;;;4.80;;
483;SDS011;228;48.922;12.198;2022-10-31T00:06:26;9.73;;;4.87;;
483;SDS011;228;48.922;12.198;2022-10-31T00:08:53;7.73;;;4.70;;
483;SDS011;228;48.922;12.198;2022-10-31T00:11:23;6.43;;;4.60;;
483;SDS011;228;48.922;12.198;2022-10-31T00:13:49;8.17;;;4.90;;
483;SDS011;228;48.922;12.198;2022-10-31T00:16:16;8.00;;;5.03;;
483;SDS011;228;48.922;12.198;2022-10-31T00:18:47;5.90;;;4.57;;
483;SDS011;228;48.922;12.198;2022-10-31T00:21:19;8.77;;;5.13;;
483;SDS011;228;48.922;12.198;2022-10-31T00:23:46;7.97;;;4.33;;
483;SDS011;228;48.922;12.198;2022-10-31T00:26:12;6.53;;;4.90;;
483;SDS011;228;48.922;12.198;2022-10-31T00:28:38;5.83;;;4.63;;
483;SDS011;228;48.922;12.198;2022-10-31T00:31:05;8.53;;;4.97;;
483;SDS011;228;48.922;12.198;2022-10-31T00:33:34;6.00;;;4.47;;
483;SDS011;228;48.922;12.198;2022-10-31T00:36:03;6.63;;;4.50;;
483;SDS011;228;48.922;12.198;2022-10-31T00:38:31;5.07;;;3.80;;
483;SDS011;228;48.922;12.198;2022-10-31T00:40:58;6.57;;;4.70;;
483;SDS011;228;48.922;12.198;2022-10-31T00:43:24;10.80;;;4.60;;
483;SDS011;228;48.922;12.198;2022-10-31T00:45:50;8.43;;;4.90;;
483;SDS011;228;48.922;12.198;2022-10-31T00:48:16;7.50;;;4.77;;
483;SDS011;228;48.922;12.198;2022-10-31T00:50:42;4.53;;;3.53;;
483;SDS011;228;48.922;12.198;2022-10-31T00:53:08;5.80;;;4.10;;
483;SDS011;228;48.922;12.198;2022-10-31T00:55:34;7.93;;;4.00;;
483;SDS011;228;48.922;12.198;2022-10-31T00:58:00;9.40;;;4.50;;
483;SDS011;228;48.922;12.198;2022-10-31T01:00:26;5.40;;;4.20;;
483;SDS011;228;48.922;12.198;2022-10-31T01:02:52;5.90;;;3.90;;
483;SDS011;228;48.922;12.198;2022-10-31T01:05:19;5.50;;;3.90;;
483;SDS011;228;48.922;12.198;2022-10-31T01:07:45;5.67;;;4.33;;
483;SDS011;228;48.922;12.198;2022-10-31T01:10:12;6.43;;;4.47;;
483;SDS011;228;48.922;12.198;2022-10-31T01:12:42;4.87;;;4.13;;
483;SDS011;228;48.922;12.198;2022-10-31T01:15:13;4.93;;;3.90;;
483;SDS011;228;48.922;12.198;2022-10-31T01:17:41;5.43;;;4.20;;
483;SDS011;228;48.922;12.198;2022-10-31T01:20:10;7.03;;;4.10;;
483;SDS011;228;48.922;12.198;2022-10-31T01:22:38;6.37;;;4.17;;
483;SDS011;228;48.922;12.198;2022-10-31T01:25:04;5.60;;;4.07;;
483;SDS011;228;48.922;12.198;2022-10-31T01:27:31;4.90;;;3.67;;
483;SDS011;228;48.922;12.198;2022-10-31T01:29:58;3.90;;;3.50;;
483;SDS011;228;48.922;12.198;2022-10-31T01:32:24;4.67;;;3.70;;
483;SDS011;228;48.922;12.198;2022-10-31T01:34:50;4.80;;;3.80;;
483;SDS011;228;48.922;12.198;2022-10-31T01:37:16;5.33;;;3.70;;
483;SDS011;228;48.922;12.198;2022-10-31T01:39:42;5.70;;;3.97;;
483;SDS011;228;48.922;12.198;2022-10-31T01:42:10;5.60;;;3.83;;
483;SDS011;228;48.922;12.198;2022-10-31T01:44:51;4.63;;;4.00;;
483;SDS011;228;48.922;12.198;2022-10-31T01:47:24;3.60;;;3.20;;
483;SDS011;228;48.922;12.198;2022-10-31T01:50:12;3.90;;;3.33;;
483;SDS011;228;48.922;12.198;2022-10-31T01:52:53;3.43;;;3.10;;
483;SDS011;228;48.922;12.198;2022-10-31T01:55:23;3.53;;;3.23;;
483;SDS011;228;48.922;12.198;2022-10-31T01:58:04;3.67;;;3.30;;
483;SDS011;228;48.922;12.198;2022-10-31T02:00:46;3.80;;;3.33;;
483;SDS011;228;48.922;12.198;2022-10-31T02:03:16;3.80;;;3.50;;
483;SDS011;228;48.922;12.198;2022-10-31T02:05:45;3.93;;;3.53;;
483;SDS011;228;48.922;12.198;2022-10-31T02:08:14;4.03;;;3.63;;
483;SDS011;228;48.922;12.198;2022-10-31T02:10:49;4.33;;;3.87;;
483;SDS011;228;48.922;12.198;2022-10-31T02:13:16;4.40;;;3.80;;
483;SDS011;228;48.922;12.198;2022-10-31T02:15:46;4.60;;;4.10;;
483;SDS011;228;48.922;12.198;2022-10-31T02:18:19;5.77;;;4.70;;
483;SDS011;228;48.922;12.198;2022-10-31T02:20:52;5.93;;;4.23;;
483;SDS011;228;48.922;12.198;2022-10-31T02:26:52;6.43;;;4.90;;
483;SDS011;228;48.922;12.198;2022-10-31T02:32:55;10.40;;;4.40;;
483;SDS011;228;48.922;12.198;2022-10-31T02:41:50;8.70;;;4.40;;
483;SDS011;228;48.922;12.198;2022-10-31T02:45:30;6.57;;;4.80;;
483;SDS011;228;48.922;12.198;2022-10-31T02:47:42;6.77;;;4.57;;
483;SDS011;228;48.922;12.198;2022-10-31T02:50:28;4.03;;;3.60;;
483;SDS011;228;48.922;12.198;2022-10-31T02:52:58;4.90;;;3.60;;
483;SDS011;228;48.922;12.198;2022-10-31T02:57:56;4.30;;;3.80;;
483;SDS011;228;48.922;12.198;2022-10-31T03:00:30;7.00;;;4.33;;
483;SDS011;228;48.922;12.198;2022-10-31T03:03:52;4.70;;;4.20;;
483;SDS011;228;48.922;12.198;2022-10-31T03:06:14;5.00;;;4.27;;
483;SDS011;228;48.922;12.198;2022-10-31T03:08:56;4.63;;;4.10;;
483;SDS011;228;48.922;12.198;2022-10-31T03:11:29;5.43;;;4.37;;
483;SDS011;228;48.922;12.198;2022-10-31T03:14:13;6.23;;;4.73;;
483;SDS011;228;48.922;12.198;2022-10-31T03:16:55;5.07;;;4.30;;
483;SDS011;228;48.922;12.198;2022-10-31T03:19:33;5.07;;;4.20;;
483;SDS011;228;48.922;12.198;2022-10-31T03:22:11;5.27;;;4.07;;
483;SDS011;228;48.922;12.198;2022-10-31T03:24:43;5.03;;;4.40;;
483;SDS011;228;48.922;12.198;2022-10-31T03:27:11;4.00;;;3.23;;
483;SDS011;228;48.922;12.198;2022-10-31T03:29:40;4.00;;;3.60;;
483;SDS011;228;48.922;12.198;2022-10-31T03:32:13;5.80;;;4.10;;
483;SDS011;228;48.922;12.198;2022-10-31T03:34:51;3.80;;;3.47;;
483;SDS011;228;48.922;12.198;2022-10-31T03:37:21;4.67;;;3.63;;
483;SDS011;228;48.922;12.198;2022-10-31T03:39:50;4.30;;;3.87;;
483;SDS011;228;48.922;12.198;2022-10-31T03:42:21;4.20;;;3.77;;
483;SDS011;228;48.922;12.198;2022-10-31T03:44:58;4.30;;;3.90;;
483;SDS011;228;48.922;12.198;2022-10-31T03:47:28;5.20;;;4.03;;
483;SDS011;228;48.922;12.198;2022-10-31T03:49:54;5.03;;;4.00;;
483;SDS011;228;48.922;12.198;2022-10-31T03:55:52;5.70;;;4.03;;
483;SDS011;228;48.922;12.198;2022-10-31T03:58:19;4.37;;;3.97;;
483;SDS011;228;48.922;12.198;2022-10-31T04:00:52;7.13;;;4.53;;
483;SDS011;228;48.922;12.198;2022-10-31T04:03:30;4.50;;;4.10;;
483;SDS011;228;48.922;12.198;2022-10-31T04:06:04;6.80;;;4.50;;
483;SDS011;228;48.922;12.198;2022-10-31T04:08:38;8.80;;;4.63;;
483;SDS011;228;48.922;12.198;2022-10-31T04:11:15;5.57;;;4.57;;
483;SDS011;228;48.922;12.198;2022-10-31T04:13:56;5.00;;;3.93;;
483;SDS011;228;48.922;12.198;2022-10-31T04:16:25;5.03;;;4.20;;
483;SDS011;228;48.922;12.198;2022-10-31T04:18:52;4.93;;;3.90;;
483;SDS011;228;48.922;12.198;2022-10-31T04:21:18;6.67;;;3.80;;
483;SDS011;228;48.922;12.198;2022-10-31T04:23:44;5.33;;;3.80;;
483;SDS011;228;48.922;12.198;2022-10-31T04:26:19;4.80;;;3.83;;
483;SDS011;228;48.922;12.198;2022-10-31T04:28:46;4.83;;;3.63;;
483;SDS011;228;48.922;12.198;2022-10-31T04:31:12;5.23;;;4.23;;
483;SDS011;228;48.922;12.198;2022-10-31T04:33:39;4.67;;;4.00;;
483;SDS011;228;48.922;12.198;2022-10-31T04:36:06;6.00;;;4.43;;
483;SDS011;228;48.922;12.198;2022-10-31T04:38:32;5.90;;;4.87;;
483;SDS011;228;48.922;12.198;2022-10-31T04:40:58;8.97;;;5.30;;
483;SDS011;228;48.922;12.198;2022-10-31T04:43:51;9.00;;;4.97;;
483;SDS011;228;48.922;12.198;2022-10-31T04:46:19;6.47;;;5.43;;
483;SDS011;228;48.922;12.198;2022-10-31T04:48:46;6.97;;;5.13;;
483;SDS011;228;48.922;12.198;2022-10-31T04:51:12;6.53;;;4.73;;
483;SDS011;228;48.922;12.198;2022-10-31T04:53:38;4.83;;;4.37;;
483;SDS011;228;48.922;12.198;2022-10-31T04:56:27;9.37;;;5.03;;
483;SDS011;228;48.922;12.198;2022-10-31T04:58:59;6.03;;;4.90;;
483;SDS011;228;48.922;12.198;2022-10-31T05:01:29;6.23;;;4.93;;
483;SDS011;228;48.922;12.198;2022-10-31T05:03:56;5.13;;;4.53;;
483;SDS011;228;48.922;12.198;2022-10-31T05:06:22;6.47;;;4.63;;
483;SDS011;228;48.922;12.198;2022-10-31T05:08:48;6.23;;;4.57;;
483;SDS011;228;48.922;12.198;2022-10-31T05:11:14;6.53;;;5.23;;
483;SDS011;228;48.922;12.198;2022-10-31T05:13:42;5.17;;;4.67;;
483;SDS011;228;48.922;12.198;2022-10-31T05:16:11;5.80;;;5.07;;
483;SDS011;228;48.922;12.198;2022-10-31T05:19:04;6.17;;;4.97;;
483;SDS011;228;48.922;12.198;2022-10-31T05:21:48;5.30;;;4.67;;
483;SDS011;228;48.922;12.198;2022-10-31T05:24:15;6.07;;;4.60;;
483;SDS011;228;48.922;12.198;2022-10-31T05:26:45;5.90;;;4.90;;
483;SDS011;228;48.922;12.198;2022-10-31T05:29:12;5.57;;;4.87;;
483;SDS011;228;48.922;12.198;2022-10-31T05:31:38;7.27;;;4.90;;
483;SDS011;228;48.922;12.198;2022-10-31T05:34:07;5.57;;;4.40;;
483;SDS011;228;48.922;12.198;2022-10-31T05:36:51;5.67;;;4.20;;
483;SDS011;228;48.922;12.198;2022-10-31T05:39:21;6.47;;;5.20;;
483;SDS011;228;48.922;12.198;2022-10-31T05:41:52;7.60;;;5.17;;
483;SDS011;228;48.922;12.198;2022-10-31T05:44:20;7.07;;;4.60;;
483;SDS011;228;48.922;12.198;2022-10-31T05:47:05;4.73;;;4.03;;
483;SDS011;228;48.922;12.198;2022-10-31T05:49:50;7.93;;;4.30;;
483;SDS011;228;48.922;12.198;2022-10-31T05:52:35;5.20;;;4.53;;
483;SDS011;228;48.922;12.198;2022-10-31T05:55:08;4.70;;;4.00;;
483;SDS011;228;48.922;12.198;2022-10-31T05:57:35;4.40;;;4.00;;
483;SDS011;228;48.922;12.198;2022-10-31T06:00:01;4.83;;;4.10;;
483;SDS011;228;48.922;12.198;2022-10-31T06:02:32;4.20;;;3.80;;
483;SDS011;228;48.922;12.198;2022-10-31T06:05:18;4.13;;;3.73;;
483;SDS011;228;48.922;12.198;2022-10-31T06:07:45;4.00;;;3.60;;
483;SDS011;228;48.922;12.198;2022-10-31T06:10:11;3.70;;;3.40;;
483;SDS011;228;48.922;12.198;2022-10-31T06:12:37;4.13;;;3.73;;
483;SDS011;228;48.922;12.198;2022-10-31T06:15:19;4.53;;;4.03;;
483;SDS011;228;48.922;12.198;2022-10-31T06:17:46;4.20;;;3.80;;
483;SDS011;228;48.922;12.198;2022-10-31T06:20:22;4.17;;;3.77;;
483;SDS011;228;48.922;12.198;2022-10-31T06:22:59;4.40;;;4.00;;
483;SDS011;228;48.922;12.198;2022-10-31T06:25:26;4.50;;;4.10;;
483;SDS011;228;48.922;12.198;2022-10-31T06:27:53;5.57;;;4.90;;
483;SDS011;228;48.922;12.198;2022-10-31T06:30:22;7.73;;;4.40;;
483;SDS011;228;48.922;12.198;2022-10-31T06:32:48;6.23;;;4.67;;
483;SDS011;228;48.922;12.198;2022-10-31T06:35:15;6.27;;;5.00;;
483;SDS011;228;48.922;12.198;2022-10-31T06:37:41;8.63;;;5.73;;
483;SDS011;228;48.922;12.198;2022-10-31T06:40:26;4.53;;;4.13;;
483;SDS011;228;48.922;12.198;2022-10-31T06:43:09;6.83;;;4.57;;
483;SDS011;228;48.922;12.198;2022-10-31T06:45:38;5.90;;;4.90;;
483;SDS011;228;48.922;12.198;2022-10-31T06:48:42;5.27;;;4.73;;
483;SDS011;228;48.922;12.198;2022-10-31T06:51:19;7.10;;;4.40;;
483;SDS011;228;48.922;12.198;2022-10-31T06:53:48;6.07;;;4.93;;
483;SDS011;228;48.922;12.198;2022-10-31T06:56:15;7.13;;;4.27;;
483;SDS011;228;48.922;12.198;2022-10-31T06:58:48;4.93;;;3.80;;
483;SDS011;228;48.922;12.198;2022-10-31T07:01:18;3.90;;;3.50;;
483;SDS011;228;48.922;12.198;2022-10-31T07:03:44;4.20;;;3.40;;
483;SDS011;228;48.922;12.198;2022-10-31T07:06:10;4.93;;;3.77;;
483;SDS011;228;48.922;12.198;2022-10-31T07:08:37;3.63;;;3.33;;
483;SDS011;228;48.922;12.198;2022-10-31T07:11:03;3.73;;;3.43;;
483;SDS011;228;48.922;12.198;2022-10-31T07:13:30;4.20;;;3.80;;
483;SDS011;228;48.922;12.198;2022-10-31T07:16:05;5.50;;;3.90;;
483;SDS011;228;48.922;12.198;2022-10-31T07:18:34;3.83;;;3.53;;
483;SDS011;228;48.922;12.198;2022-10-31T07:21:06;4.20;;;3.80;;
483;SDS011;228;48.922;12.198;2022-10-31T07:23:33;4.10;;;3.70;;
483;SDS011;228;48.922;12.198;2022-10-31T07:26:20;4.60;;;4.10;;
483;SDS011;228;48.922;12.198;2022-10-31T07:28:49;4.23;;;3.83;;
483;SDS011;228;48.922;12.198;2022-10-31T07:31:21;4.70;;;4.17;;
483;SDS011;228;48.922;12.198;2022-10-31T07:33:49;4.57;;;4.13;;
483;SDS011;228;48.922;12.198;2022-10-31T07:36:27;4.60;;;4.07;;
483;SDS011;228;48.922;12.198;2022-10-31T07:38:58;4.73;;;4.27;;
483;SDS011;228;48.922;12.198;2022-10-31T07:41:25;4.63;;;4.23;;
483;SDS011;228;48.922;12.198;2022-10-31T07:43:51;4.57;;;4.17;;
483;SDS011;228;48.922;12.198;2022-10-31T07:46:56;6.20;;;4.77;;
483;SDS011;228;48.922;12.198;2022-10-31T07:49:43;4.70;;;4.30;;
483;SDS011;228;48.922;12.198;2022-10-31T08:09:30;4.70;;;4.10;;
483;SDS011;228;48.922;12.198;2022-10-31T08:12:00;5.63;;;4.60;;
483;SDS011;228;48.922;12.198;2022-10-31T08:14:28;4.63;;;3.90;;
483;SDS011;228;48.922;12.198;2022-10-31T08:16:56;4.67;;;4.27;;
483;SDS011;228;48.922;12.198;2022-10-31T08:19:27;4.50;;;3.60;;
483;SDS011;228;48.922;12.198;2022-10-31T08:21:56;4.20;;;3.80;;
483;SDS011;228;48.922;12.198;2022-10-31T08:24:23;3.90;;;3.60;;
483;SDS011;228;48.922;12.198;2022-10-31T08:26:52;3.93;;;3.50;;
483;SDS011;228;48.922;12.198;2022-10-31T08:29:21;4.47;;;4.07;;
483;SDS011;228;48.922;12.198;2022-10-31T08:31:47;4.20;;;3.80;;
483;SDS011;228;48.922;12.198;2022-10-31T08:34:33;4.40;;;4.00;;
483;SDS011;228;48.922;12.198;2022-10-31T08:37:28;3.77;;;3.37;;
483;SDS011;228;48.922;12.198;2022-10-31T08:39:55;3.83;;;3.40;;
483;SDS011;228;48.922;12.198;2022-10-31T08:42:25;4.70;;;3.63;;
483;SDS011;228;48.922;12.198;2022-10-31T08:44:59;4.33;;;3.93;;
483;SDS011;228;48.922;12.198;2022-10-31T08:47:37;4.03;;;3.50;;
483;SDS011;228;48.922;12.198;2022-10-31T08:50:07;4.20;;;3.80;;
483;SDS011;228;48.922;12.198;2022-10-31T08:52:34;4.17;;;3.77;;
483;SDS011;228;48.922;12.198;2022-10-31T08:55:02;4.40;;;4.00;;
483;SDS011;228;48.922;12.198;2022-10-31T08:57:46;4.40;;;4.00;;
483;SDS011;228;48.922;12.198;2022-10-31T09:00:14;4.10;;;3.70;;
483;SDS011;228;48.922;12.198;2022-10-31T09:02:59;5.77;;;3.80;;
483;SDS011;228;48.922;12.198;2022-10-31T09:05:30;4.23;;;3.83;;
483;SDS011;228;48.922;12.198;2022-10-31T09:07:58;3.93;;;3.53;;
483;SDS011;228;48.922;12.198;2022-10-31T09:10:29;4.37;;;3.97;;
483;SDS011;228;48.922;12.198;2022-10-31T09:13:03;4.20;;;3.80;;
483;SDS011;228;48.922;12.198;2022-10-31T09:15:58;6.13;;;4.27;;
483;SDS011;228;48.922;12.198;2022-10-31T09:18:24;4.77;;;4.37;;
483;SDS011;228;48.922;12.198;2022-10-31T09:20:58;4.30;;;3.90;;
483;SDS011;228;48.922;12.198;2022-10-31T09:23:26;4.47;;;4.07;;
483;SDS011;228;48.922;12.198;2022-10-31T09:25:54;4.90;;;4.27;;
483;SDS011;228;48.922;12.198;2022-10-31T09:28:44;5.97;;;4.30;;
483;SDS011;228;48.922;12.198;2022-10-31T09:31:13;5.60;;;4.10;;
483;SDS011;228;48.922;12.198;2022-10-31T09:34:15;5.53;;;4.50;;
483;SDS011;228;48.922;12.198;2022-10-31T09:36:45;4.33;;;3.90;;
483;SDS011;228;48.922;12.198;2022-10-31T09:39:16;7.17;;;4.10;;
483;SDS011;228;48.922;12.198;2022-10-31T09:41:54;6.07;;;4.80;;
483;SDS011;228;48.922;12.198;2022-10-31T09:45:05;5.90;;;4.80;;
483;SDS011;228;48.922;12.198;2022-10-31T09:51:34;8.27;;;5.00;;
483;SDS011;228;48.922;12.198;2022-10-31T09:54:20;6.83;;;4.80;;
483;SDS011;228;48.922;12.198;2022-10-31T09:57:12;7.13;;;5.70;;
483;SDS011;228;48.922;12.198;2022-10-31T10:00:21;7.87;;;5.50;;
483;SDS011;228;48.922;12.198;2022-10-31T10:06:25;5.43;;;4.60;;
483;SDS011;228;48.922;12.198;2022-10-31T10:09:26;6.00;;;5.40;;
483;SDS011;228;48.922;12.198;2022-10-31T10:17:52;8.00;;;6.20;;
483;SDS011;228;48.922;12.198;2022-10-31T10:27:47;11.13;;;6.90;;
483;SDS011;228;48.922;12.198;2022-10-31T10:30:16;7.97;;;6.53;;
483;SDS011;228;48.922;12.198;2022-10-31T10:32:51;8.97;;;7.40;;
483;SDS011;228;48.922;12.198;2022-10-31T10:38:02;9.03;;;7.53;;
483;SDS011;228;48.922;12.198;2022-10-31T10:40:51;11.60;;;8.80;;
483;SDS011;228;48.922;12.198;2022-10-31T10:43:23;11.47;;;8.87;;
483;SDS011;228;48.922;12.198;2022-10-31T10:49:15;12.40;;;9.70;;
483;SDS011;228;48.922;12.198;2022-10-31T10:58:23;10.80;;;9.67;;
483;SDS011;228;48.922;12.198;2022-10-31T11:00:52;12.13;;;9.13;;
483;SDS011;228;48.922;12.198;2022-10-31T11:03:26;10.33;;;8.43;;
483;SDS011;228;48.922;12.198;2022-10-31T11:05:54;11.53;;;8.80;;
483;SDS011;228;48.922;12.198;2022-10-31T11:08:27;10.20;;;8.77;;
483;SDS011;228;48.922;12.198;2022-10-31T11:11:09;10.30;;;9.17;;
483;SDS011;228;48.922;12.198;2022-10-31T11:13:47;12.00;;;9.63;;
483;SDS011;228;48.922;12.198;2022-10-31T11:16:37;13.17;;;10.83;;
483;SDS011;228;48.922;12.198;2022-10-31T11:21:50;10.67;;;8.73;;
483;SDS011;228;48.922;12.198;2022-10-31T11:24:17;14.10;;;10.90;;
483;SDS011;228;48.922;12.198;2022-10-31T11:26:47;19.13;;;11.17;;
483;SDS011;228;48.922;12.198;2022-10-31T11:29:25;14.63;;;12.23;;
483;SDS011;228;48.922;12.198;2022-10-31T11:31:55;15.07;;;10.60;;
483;SDS011;228;48.922;12.198;2022-10-31T11:34:32;15.07;;;11.00;;
483;SDS011;228;48.922;12.198;2022-10-31T11:39:54;14.87;;;11.90;;
483;SDS011;228;48.922;12.198;2022-10-31T11:42:24;16.50;;;11.77;;
483;SDS011;228;48.922;12.198;2022-10-31T11:45:02;15.90;;;12.40;;
483;SDS011;228;48.922;12.198;2022-10-31T11:47:41;16.03;;;12.53;;
483;SDS011;228;48.922;12.198;2022-10-31T11:50:18;16.33;;;12.90;;
483;SDS011;228;48.922;12.198;2022-10-31T11:52:48;16.47;;;13.03;;
483;SDS011;228;48.922;12.198;2022-10-31T11:55:17;17.20;;;13.47;;
483;SDS011;228;48.922;12.198;2022-10-31T11:57:55;18.13;;;13.57;;
483;SDS011;228;48.922;12.198;2022-10-31T12:03:06;18.40;;;12.80;;
483;SDS011;228;48.922;12.198;2022-10-31T12:05:56;18.77;;;13.83;;
483;SDS011;228;48.922;12.198;2022-10-31T12:08:30;17.33;;;13.90;;
483;SDS011;228;48.922;12.198;2022-10-31T12:16:35;22.67;;;16.30;;
483;SDS011;228;48.922;12.198;2022-10-31T12:19:12;21.10;;;14.90;;
483;SDS011;228;48.922;12.198;2022-10-31T12:46:31;19.20;;;14.27;;
483;SDS011;228;48.922;12.198;2022-10-31T13:00:19;23.50;;;16.47;;
483;SDS011;228;48.922;12.198;2022-10-31T13:08:06;21.53;;;16.17;;
483;SDS011;228;48.922;12.198;2022-10-31T13:10:41;24.40;;;16.97;;
483;SDS011;228;48.922;12.198;2022-10-31T13:13:32;25.77;;;17.13;;
483;SDS011;228;48.922;12.198;2022-10-31T13:16:18;21.50;;;15.10;;
483;SDS011;228;48.922;12.198;2022-10-31T13:18:50;27.73;;;17.20;;
483;SDS011;228;48.922;12.198;2022-10-31T13:21:22;23.60;;;17.07;;
483;SDS011;228;48.922;12.198;2022-10-31T13:23:59;27.13;;;17.20;;
483;SDS011;228;48.922;12.198;2022-10-31T13:31:56;26.33;;;17.90;;
483;SDS011;228;48.922;12.198;2022-10-31T13:34:31;25.23;;;17.40;;
483;SDS011;228;48.922;12.198;2022-10-31T13:43:52;23.27;;;16.00;;
483;SDS011;228;48.922;12.198;2022-10-31T13:45:52;24.67;;;16.97;;
483;SDS011;228;48.922;12.198;2022-10-31T13:51:08;24.67;;;17.80;;
483;SDS011;228;48.922;12.198;2022-10-31T13:53:37;22.50;;;16.03;;
483;SDS011;228;48.922;12.198;2022-10-31T13:58:33;23.13;;;16.17;;
483;SDS011;228;48.922;12.198;2022-10-31T14:03:38;24.17;;;17.03;;
483;SDS011;228;48.922;12.198;2022-10-31T14:06:06;25.33;;;16.87;;
483;SDS011;228;48.922;12.198;2022-10-31T14:08:35;25.00;;;16.40;;
483;SDS011;228;48.922;12.198;2022-10-31T14:11:31;26.30;;;17.17;;
483;SDS011;228;48.922;12.198;2022-10-31T14:13:58;24.70;;;16.37;;
483;SDS011;228;48.922;12.198;2022-10-31T14:16:26;24.83;;;17.17;;
483;SDS011;228;48.922;12.198;2022-10-31T14:21:46;25.33;;;15.70;;
483;SDS011;228;48.922;12.198;2022-10-31T14:24:15;28.23;;;19.20;;
483;SDS011;228;48.922;12.198;2022-10-31T14:26:51;24.43;;;16.93;;
483;SDS011;228;48.922;12.198;2022-10-31T14:29:25;25.13;;;17.10;;
483;SDS011;228;48.922;12.198;2022-10-31T14:34:40;27.00;;;18.00;;
483;SDS011;228;48.922;12.198;2022-10-31T14:52:36;24.40;;;17.10;;
483;SDS011;228;48.922;12.198;2022-10-31T14:55:05;25.70;;;18.17;;
483;SDS011;228;48.922;12.198;2022-10-31T14:57:37;26.23;;;17.90;;
483;SDS011;228;48.922;12.198;2022-10-31T15:00:17;26.97;;;16.63;;
483;SDS011;228;48.922;12.198;2022-10-31T15:02:53;26.33;;;17.27;;
483;SDS011;228;48.922;12.198;2022-10-31T15:05:28;25.83;;;17.17;;
483;SDS011;228;48.922;12.198;2022-10-31T15:07:56;22.60;;;16.23;;
483;SDS011;228;48.922;12.198;2022-10-31T15:10:28;23.87;;;16.63;;
483;SDS011;228;48.922;12.198;2022-10-31T15:15:47;25.20;;;16.70;;
483;SDS011;228;48.922;12.198;2022-10-31T15:18:17;25.53;;;17.73;;
483;SDS011;228;48.922;12.198;2022-10-31T15:20:48;22.43;;;17.03;;
483;SDS011;228;48.922;12.198;2022-10-31T15:23:27;24.40;;;17.77;;
483;SDS011;228;48.922;12.198;2022-10-31T15:26:15;27.70;;;18.90;;
483;SDS011;228;48.922;12.198;2022-10-31T15:28:45;22.20;;;16.33;;
483;SDS011;228;48.922;12.198;2022-10-31T15:31:15;22.53;;;17.67;;
483;SDS011;228;48.922;12.198;2022-10-31T15:33:42;24.97;;;17.27;;
483;SDS011;228;48.922;12.198;2022-10-31T15:36:24;23.97;;;17.50;;
483;SDS011;228;48.922;12.198;2022-10-31T15:38:51;22.37;;;16.97;;
483;SDS011;228;48.922;12.198;2022-10-31T15:41:20;24.53;;;18.20;;
483;SDS011;228;48.922;12.198;2022-10-31T15:44:23;23.30;;;17.83;;
483;SDS011;228;48.922;12.198;2022-10-31T15:52:10;28.20;;;19.50;;
483;SDS011;228;48.922;12.198;2022-10-31T15:57:46;25.03;;;17.63;;
483;SDS011;228;48.922;12.198;2022-10-31T16:00:28;27.43;;;18.60;;
483;SDS011;228;48.922;12.198;2022-10-31T16:05:45;25.07;;;17.40;;
483;SDS011;228;48.922;12.198;2022-10-31T16:10:53;21.33;;;16.10;;
483;SDS011;228;48.922;12.198;2022-10-31T16:13:33;21.23;;;15.90;;
483;SDS011;228;48.922;12.198;2022-10-31T16:16:03;24.07;;;16.33;;
483;SDS011;228;48.922;12.198;2022-10-31T16:18:37;24.47;;;16.73;;
483;SDS011;228;48.922;12.198;2022-10-31T16:21:05;24.00;;;16.90;;
483;SDS011;228;48.922;12.198;2022-10-31T16:23:33;21.80;;;16.43;;
483;SDS011;228;48.922;12.198;2022-10-31T16:26:05;20.37;;;15.83;;
483;SDS011;228;48.922;12.198;2022-10-31T16:28:32;23.23;;;16.37;;
483;SDS011;228;48.922;12.198;2022-10-31T16:30:59;22.93;;;16.47;;
483;SDS011;228;48.922;12.198;2022-10-31T16:36:28;22.97;;;16.83;;
483;SDS011;228;48.922;12.198;2022-10-31T16:38:56;23.50;;;16.43;;
483;SDS011;228;48.922;12.198;2022-10-31T16:44:22;25.10;;;17.47;;
483;SDS011;228;48.922;12.198;2022-10-31T16:47:15;26.40;;;17.33;;
483;SDS011;228;48.922;12.198;2022-10-31T16:49:43;21.03;;;14.87;;
483;SDS011;228;48.922;12.198;2022-10-31T16:52:14;22.97;;;15.83;;
483;SDS011;228;48.922;12.198;2022-10-31T16:54:43;24.27;;;16.53;;
483;SDS011;228;48.922;12.198;2022-10-31T16:57:12;23.70;;;16.43;;
483;SDS011;228;48.922;12.198;2022-10-31T16:59:51;21.67;;;15.77;;
483;SDS011;228;48.922;12.198;2022-10-31T17:02:21;22.97;;;16.07;;
483;SDS011;228;48.922;12.198;2022-10-31T17:04:47;20.67;;;15.53;;
483;SDS011;228;48.922;12.198;2022-10-31T17:07:13;22.03;;;15.87;;
483;SDS011;228;48.922;12.198;2022-10-31T17:09:43;26.40;;;18.27;;
483;SDS011;228;48.922;12.198;2022-10-31T17:12:14;21.27;;;15.83;;
483;SDS011;228;48.922;12.198;2022-10-31T17:14:45;20.27;;;15.20;;
483;SDS011;228;48.922;12.198;2022-10-31T17:17:14;19.13;;;14.60;;
483;SDS011;228;48.922;12.198;2022-10-31T17:19:40;26.83;;;19.00;;
483;SDS011;228;48.922;12.198;2022-10-31T17:22:09;22.90;;;16.40;;
483;SDS011;228;48.922;12.198;2022-10-31T17:24:37;41.13;;;28.43;;
483;SDS011;228;48.922;12.198;2022-10-31T17:27:03;40.07;;;26.77;;
483;SDS011;228;48.922;12.198;2022-10-31T17:29:30;33.17;;;22.27;;
483;SDS011;228;48.922;12.198;2022-10-31T17:31:57;39.90;;;28.03;;
483;SDS011;228;48.922;12.198;2022-10-31T17:34:24;36.23;;;26.63;;
483;SDS011;228;48.922;12.198;2022-10-31T17:36:53;30.03;;;21.03;;
483;SDS011;228;48.922;12.198;2022-10-31T17:39:23;25.33;;;17.67;;
483;SDS011;228;48.922;12.198;2022-10-31T17:41:49;27.17;;;19.17;;
483;SDS011;228;48.922;12.198;2022-10-31T17:44:19;23.00;;;16.93;;
483;SDS011;228;48.922;12.198;2022-10-31T17:46:47;22.00;;;15.80;;
483;SDS011;228;48.922;12.198;2022-10-31T17:49:14;19.37;;;14.00;;
483;SDS011;228;48.922;12.198;2022-10-31T17:51:43;19.27;;;13.50;;
483;SDS011;228;48.922;12.198;2022-10-31T17:54:12;18.60;;;14.00;;
483;SDS011;228;48.922;12.198;2022-10-31T17:56:42;19.87;;;14.70;;
483;SDS011;228;48.922;12.198;2022-10-31T17:59:08;33.60;;;23.93;;
483;SDS011;228;48.922;12.198;2022-10-31T18:01:34;45.03;;;28.53;;
483;SDS011;228;48.922;12.198;2022-10-31T18:04:03;26.97;;;18.13;;
483;SDS011;228;48.922;12.198;2022-10-31T18:06:29;30.97;;;21.80;;
483;SDS011;228;48.922;12.198;2022-10-31T18:09:00;24.03;;;16.13;;
483;SDS011;228;48.922;12.198;2022-10-31T18:11:28;24.63;;;15.60;;
483;SDS011;228;48.922;12.198;2022-10-31T18:13:55;21.17;;;15.80;;
483;SDS011;228;48.922;12.198;2022-10-31T18:16:23;20.00;;;14.63;;
483;SDS011;228;48.922;12.198;2022-10-31T18:18:51;22.73;;;15.67;;
483;SDS011;228;48.922;12.198;2022-10-31T18:21:19;22.17;;;15.07;;
483;SDS011;228;48.922;12.198;2022-10-31T18:23:45;18.90;;;14.80;;
483;SDS011;228;48.922;12.198;2022-10-31T18:26:12;25.37;;;17.23;;
483;SDS011;228;48.922;12.198;2022-10-31T18:28:41;21.53;;;14.93;;
483;SDS011;228;48.922;12.198;2022-10-31T18:31:10;20.97;;;14.20;;
483;SDS011;228;48.922;12.198;2022-10-31T18:33:37;27.67;;;17.90;;
483;SDS011;228;48.922;12.198;2022-10-31T18:36:05;25.37;;;18.27;;
483;SDS011;228;48.922;12.198;2022-10-31T18:38:32;27.23;;;16.13;;
483;SDS011;228;48.922;12.198;2022-10-31T18:41:02;24.00;;;16.90;;
483;SDS011;228;48.922;12.198;2022-10-31T18:43:28;22.77;;;16.60;;
483;SDS011;228;48.922;12.198;2022-10-31T18:45:54;26.90;;;18.33;;
483;SDS011;228;48.922;12.198;2022-10-31T18:48:24;23.13;;;16.13;;
483;SDS011;228;48.922;12.198;2022-10-31T18:50:52;23.10;;;16.60;;
483;SDS011;228;48.922;12.198;2022-10-31T18:53:22;24.80;;;17.83;;
483;SDS011;228;48.922;12.198;2022-10-31T18:55:48;40.97;;;26.27;;
483;SDS011;228;48.922;12.198;2022-10-31T18:58:15;39.47;;;25.77;;
483;SDS011;228;48.922;12.198;2022-10-31T19:00:41;75.63;;;43.57;;